createdAt,value
2022-10-08T00:01:22.092Z,99.90
2022-10-08T00:03:53.253Z,99.90
2022-10-08T00:06:31.238Z,99.90
2022-10-08T00:09:07.291Z,99.90
2022-10-08T00:11:40.188Z,99.90
2022-10-08T00:14:09.481Z,99.90
2022-10-08T00:16:41.827Z,99.90
2022-10-08T00:19:15.565Z,99.90
2022-10-08T00:21:45.368Z,99.90
2022-10-08T00:24:18.365Z,99.90
2022-10-08T00:26:45.669Z,99.90
2022-10-08T00:29:15.831Z,99.90
2022-10-08T00:31:46.027Z,99.90
2022-10-08T00:34:18.727Z,99.90
2022-10-08T00:36:47.474Z,99.90
2022-10-08T00:39:20.231Z,99.90
2022-10-08T00:41:54.606Z,99.90
2022-10-08T00:44:59.980Z,99.90
2022-10-08T00:47:33.093Z,99.90
2022-10-08T00:50:00.113Z,99.90
2022-10-08T00:52:35.042Z,99.90
2022-10-08T00:55:08.101Z,99.90
2022-10-08T00:57:37.761Z,99.90
2022-10-08T01:00:10.642Z,99.90
2022-10-08T01:02:37.942Z,99.90
2022-10-08T01:05:07.344Z,99.90
2022-10-08T01:07:48.271Z,99.90
2022-10-08T01:10:41.135Z,99.90
2022-10-08T01:13:39.481Z,99.90
2022-10-08T01:16:34.965Z,99.90
2022-10-08T01:19:20.892Z,99.90
2022-10-08T01:22:25.837Z,99.90
2022-10-08T01:25:18.688Z,99.90
2022-10-08T01:28:25.446Z,99.90
2022-10-08T01:31:05.675Z,99.90
2022-10-08T01:33:45.591Z,99.90
2022-10-08T01:36:15.932Z,99.90
2022-10-08T01:38:50.772Z,99.90
2022-10-08T01:41:20.415Z,99.90
2022-10-08T01:44:36.334Z,99.90
2022-10-08T01:47:10.086Z,99.90
2022-10-08T01:49:58.016Z,99.90
2022-10-08T01:52:32.699Z,99.90
2022-10-08T01:55:10.254Z,99.90
2022-10-08T01:57:40.314Z,99.90
2022-10-08T02:00:12.615Z,99.90
2022-10-08T02:02:42.108Z,99.90
2022-10-08T02:05:11.394Z,99.90
2022-10-08T02:07:42.569Z,99.90
2022-10-08T02:10:17.032Z,99.90
2022-10-08T02:12:45.737Z,99.90
2022-10-08T02:15:28.198Z,99.90
2022-10-08T02:18:13.693Z,99.90
2022-10-08T02:20:56.615Z,99.90
2022-10-08T02:23:38.092Z,99.90
2022-10-08T02:26:20.308Z,99.90
2022-10-08T02:29:25.914Z,99.90
2022-10-08T02:32:30.111Z,99.90
2022-10-08T02:35:33.733Z,99.90
2022-10-08T02:38:12.052Z,99.90
2022-10-08T02:40:45.649Z,99.90
2022-10-08T02:43:22.126Z,99.90
2022-10-08T02:46:17.349Z,99.90
2022-10-08T02:49:02.879Z,99.90
2022-10-08T02:51:35.358Z,99.90
2022-10-08T02:54:06.256Z,99.90
2022-10-08T02:56:46.878Z,99.90
2022-10-08T02:59:18.163Z,99.90
2022-10-08T03:02:02.703Z,99.90
2022-10-08T03:04:38.569Z,99.90
2022-10-08T03:07:06.808Z,99.90
2022-10-08T03:09:41.113Z,99.90
2022-10-08T03:12:08.574Z,99.90
2022-10-08T03:14:42.085Z,99.90
2022-10-08T03:17:14.163Z,99.90
2022-10-08T03:22:08.998Z,99.90
2022-10-08T03:24:36.748Z,99.90
2022-10-08T03:27:04.723Z,99.90
2022-10-08T03:29:32.049Z,99.90
2022-10-08T03:34:28.115Z,99.90
2022-10-08T03:39:22.974Z,99.90
2022-10-08T03:41:50.138Z,99.90
2022-10-08T03:44:17.288Z,99.90
2022-10-08T03:46:44.387Z,99.90
2022-10-08T03:49:11.599Z,99.90
2022-10-08T03:51:38.705Z,99.90
2022-10-08T03:54:05.836Z,99.90
2022-10-08T03:59:01.209Z,99.90
2022-10-08T04:01:30.134Z,99.90
2022-10-08T04:03:57.260Z,99.90
2022-10-08T04:06:24.517Z,99.90
2022-10-08T04:08:51.925Z,99.90
2022-10-08T04:11:20.180Z,99.90
2022-10-08T04:16:18.786Z,99.90
2022-10-08T04:18:47.646Z,99.90
2022-10-08T04:21:18.862Z,99.90
2022-10-08T04:26:15.071Z,99.90
2022-10-08T04:28:45.155Z,99.90
2022-10-08T04:31:17.465Z,99.90
2022-10-08T04:33:46.754Z,99.90
2022-10-08T04:36:18.754Z,99.90
2022-10-08T04:38:46.926Z,99.90
2022-10-08T04:41:18.176Z,99.90
2022-10-08T04:43:47.264Z,99.90
2022-10-08T04:46:18.148Z,99.90
2022-10-08T04:48:55.625Z,99.90
2022-10-08T04:51:25.924Z,99.90
2022-10-08T04:53:54.958Z,99.90
2022-10-08T04:56:26.709Z,99.90
2022-10-08T04:58:57.788Z,99.90
2022-10-08T05:01:27.033Z,99.90
2022-10-08T05:03:56.982Z,99.90
2022-10-08T05:06:28.239Z,99.90
2022-10-08T05:08:56.817Z,99.90
2022-10-08T05:11:26.292Z,99.90
2022-10-08T05:13:56.105Z,99.90
2022-10-08T05:16:24.721Z,99.90
2022-10-08T05:18:52.689Z,99.90
2022-10-08T05:21:23.998Z,99.90
2022-10-08T05:24:01.002Z,99.90
2022-10-08T05:27:01.948Z,99.90
2022-10-08T05:29:19.847Z,99.90
2022-10-08T05:31:47.266Z,99.90
2022-10-08T05:34:15.603Z,99.90
2022-10-08T05:36:43.766Z,99.90
2022-10-08T05:39:11.411Z,99.90
2022-10-08T05:41:39.153Z,99.90
2022-10-08T05:44:08.285Z,99.90
2022-10-08T05:46:38.059Z,99.90
2022-10-08T05:49:08.917Z,99.90
2022-10-08T05:51:38.577Z,99.90
2022-10-08T05:54:06.345Z,99.90
2022-10-08T05:56:33.771Z,99.90
2022-10-08T05:59:01.209Z,99.90
2022-10-08T06:01:32.446Z,99.90
2022-10-08T06:04:09.016Z,99.90
2022-10-08T06:06:43.200Z,99.90
2022-10-08T06:09:15.430Z,99.90
2022-10-08T06:11:43.243Z,99.90
2022-10-08T06:14:13.726Z,99.90
2022-10-08T06:16:41.468Z,99.90
2022-10-08T06:19:09.642Z,99.90
2022-10-08T06:21:37.633Z,99.90
2022-10-08T06:24:08.737Z,99.90
2022-10-08T06:26:40.198Z,99.90
2022-10-08T06:29:12.781Z,99.90
2022-10-08T06:31:40.179Z,99.90
2022-10-08T06:34:07.528Z,99.90
2022-10-08T06:36:37.726Z,99.90
2022-10-08T06:39:14.795Z,99.90
2022-10-08T06:41:42.789Z,99.90
2022-10-08T06:44:14.505Z,99.90
2022-10-08T06:46:42.822Z,99.90
2022-10-08T06:49:11.651Z,99.90
2022-10-08T06:51:38.816Z,99.90
2022-10-08T06:54:08.165Z,99.90
2022-10-08T06:56:38.243Z,99.90
2022-10-08T06:59:07.645Z,99.90
2022-10-08T07:01:36.056Z,99.90
2022-10-08T07:04:05.594Z,99.90
2022-10-08T07:06:32.968Z,99.90
2022-10-08T07:09:02.334Z,99.90
2022-10-08T07:11:33.595Z,99.90
2022-10-08T07:14:00.968Z,99.90
2022-10-08T07:16:29.268Z,99.90
2022-10-08T07:18:58.735Z,99.90
2022-10-08T07:21:27.857Z,99.90
2022-10-08T07:26:26.752Z,99.90
2022-10-08T07:29:01.338Z,99.90
2022-10-08T07:31:33.065Z,99.90
2022-10-08T07:34:03.618Z,99.90
2022-10-08T07:36:31.071Z,99.90
2022-10-08T07:39:06.515Z,99.90
2022-10-08T07:41:34.446Z,99.90
2022-10-08T07:44:04.229Z,99.90
2022-10-08T07:46:35.506Z,99.90
2022-10-08T07:49:04.938Z,99.90
2022-10-08T07:51:34.891Z,99.90
2022-10-08T07:54:05.057Z,99.90
2022-10-08T07:56:33.578Z,99.90
2022-10-08T07:59:02.661Z,99.90
2022-10-08T08:01:31.714Z,99.90
2022-10-08T08:04:08.366Z,99.90
2022-10-08T08:06:42.439Z,99.90
2022-10-08T08:09:10.842Z,99.90
2022-10-08T08:11:38.374Z,99.90
2022-10-08T08:14:05.825Z,99.90
2022-10-08T08:16:34.413Z,99.90
2022-10-08T08:19:02.462Z,99.90
2022-10-08T08:21:33.760Z,99.90
2022-10-08T08:24:10.866Z,99.90
2022-10-08T08:26:43.031Z,99.90
2022-10-08T08:29:18.898Z,99.90
2022-10-08T08:31:49.314Z,99.60
2022-10-08T08:34:24.451Z,98.40
2022-10-08T08:36:53.964Z,98.50
2022-10-08T08:39:31.164Z,95.80
2022-10-08T08:42:35.152Z,96.30
2022-10-08T08:45:51.885Z,96.40
2022-10-08T08:48:26.762Z,96.70
2022-10-08T08:50:58.821Z,95.70
2022-10-08T08:53:26.846Z,96.10
2022-10-08T08:56:00.900Z,95.70
2022-10-08T08:59:21.305Z,94.20
2022-10-08T09:01:49.713Z,94.60
2022-10-08T09:04:45.684Z,94.70
2022-10-08T09:07:21.074Z,92.30
2022-10-08T09:09:52.997Z,92.80
2022-10-08T09:12:43.943Z,91.50
2022-10-08T09:15:17.171Z,91.70
2022-10-08T09:17:49.035Z,91.50
2022-10-08T09:20:21.405Z,91.50
2022-10-08T09:22:51.878Z,92.20
2022-10-08T09:25:26.667Z,93.00
2022-10-08T09:28:01.095Z,94.30
2022-10-08T09:30:38.781Z,93.00
2022-10-08T09:33:32.204Z,93.30
2022-10-08T09:35:59.721Z,92.60
2022-10-08T09:38:33.185Z,90.20
2022-10-08T09:41:20.541Z,89.10
2022-10-08T09:44:25.344Z,90.40
2022-10-08T09:47:06.700Z,90.40
2022-10-08T09:49:38.541Z,89.40
2022-10-08T09:52:19.899Z,89.80
2022-10-08T09:54:58.099Z,91.30
2022-10-08T09:57:25.320Z,92.00
2022-10-08T10:00:00.622Z,90.90
2022-10-08T10:05:24.558Z,89.50
2022-10-08T10:07:53.106Z,90.40
2022-10-08T10:13:09.521Z,88.60
2022-10-08T10:15:50.757Z,89.90
2022-10-08T10:18:32.418Z,89.70
2022-10-08T10:21:11.590Z,86.40
2022-10-08T10:24:02.397Z,88.50
2022-10-08T10:26:40.487Z,89.10
2022-10-08T10:29:21.143Z,87.80
2022-10-08T10:32:06.047Z,86.70
2022-10-08T10:34:39.844Z,86.00
2022-10-08T10:37:36.534Z,88.10
2022-10-08T10:40:36.384Z,87.80
2022-10-08T10:43:27.462Z,87.90
2022-10-08T10:46:16.647Z,91.10
2022-10-08T10:48:43.786Z,91.10
2022-10-08T10:51:28.907Z,89.30
2022-10-08T10:54:34.176Z,90.30
2022-10-08T10:57:44.047Z,90.90
2022-10-08T11:01:08.765Z,86.50
2022-10-08T11:04:10.202Z,86.40
2022-10-08T11:06:52.855Z,85.20
2022-10-08T11:09:55.496Z,82.40
2022-10-08T11:15:40.843Z,85.60
2022-10-08T11:18:54.287Z,79.00
2022-10-08T11:22:03.815Z,81.70
2022-10-08T11:27:53.722Z,82.00
2022-10-08T11:31:16.268Z,78.40
2022-10-08T11:33:45.732Z,80.50
2022-10-08T11:36:43.532Z,79.20
2022-10-08T11:39:28.303Z,78.90
2022-10-08T11:42:10.788Z,78.70
2022-10-08T11:47:43.247Z,80.50
2022-10-08T11:50:33.182Z,82.60
2022-10-08T11:53:18.996Z,85.20
2022-10-08T11:55:59.214Z,84.70
2022-10-08T11:58:31.250Z,83.80
2022-10-08T12:01:09.054Z,83.20
2022-10-08T12:03:43.393Z,83.50
2022-10-08T12:06:23.543Z,85.00
2022-10-08T12:08:56.796Z,83.80
2022-10-08T12:11:33.103Z,84.50
2022-10-08T12:14:14.841Z,85.70
2022-10-08T12:16:48.303Z,87.10
2022-10-08T12:19:36.472Z,84.30
2022-10-08T12:22:16.480Z,85.10
2022-10-08T12:24:50.732Z,85.40
2022-10-08T12:27:17.992Z,86.00
2022-10-08T12:30:13.908Z,86.80
2022-10-08T12:32:44.045Z,87.10
2022-10-08T12:35:36.465Z,85.90
2022-10-08T12:38:42.849Z,86.40
2022-10-08T12:41:47.389Z,84.00
2022-10-08T12:45:04.189Z,85.70
2022-10-08T12:47:56.736Z,87.30
2022-10-08T12:51:02.903Z,86.30
2022-10-08T12:56:00.047Z,85.90
2022-10-08T12:58:33.605Z,85.60
2022-10-08T13:01:05.591Z,86.60
2022-10-08T13:03:32.832Z,89.10
2022-10-08T13:06:17.914Z,87.10
2022-10-08T13:08:47.331Z,90.50
2022-10-08T13:11:16.147Z,89.80
2022-10-08T13:13:50.550Z,89.30
2022-10-08T13:16:23.794Z,87.70
2022-10-08T13:18:58.895Z,88.60
2022-10-08T13:21:32.277Z,86.70
2022-10-08T13:24:25.412Z,87.70
2022-10-08T13:26:55.670Z,90.00
2022-10-08T13:29:22.741Z,90.80
2022-10-08T13:32:13.998Z,91.30
2022-10-08T13:34:41.256Z,91.40
2022-10-08T13:37:23.341Z,92.70
2022-10-08T13:39:53.819Z,92.30
2022-10-08T13:42:25.234Z,92.50
2022-10-08T13:44:52.668Z,93.10
2022-10-08T13:47:22.422Z,94.20
2022-10-08T13:49:50.108Z,95.30
2022-10-08T13:52:22.102Z,94.90
2022-10-08T13:54:54.021Z,95.70
2022-10-08T13:59:48.747Z,99.00
2022-10-08T14:02:15.881Z,98.70
2022-10-08T14:07:30.364Z,99.70
2022-10-08T14:10:00.363Z,99.90
2022-10-08T14:12:32.543Z,99.90
2022-10-08T14:15:01.323Z,99.90
2022-10-08T14:17:28.531Z,99.90
2022-10-08T14:22:23.743Z,99.90
2022-10-08T14:24:51.816Z,99.90
2022-10-08T14:27:18.867Z,99.90
2022-10-08T14:29:46.062Z,99.90
2022-10-08T14:32:13.180Z,99.90
2022-10-08T14:42:04.885Z,99.90
2022-10-08T14:44:31.986Z,99.90
2022-10-08T14:46:59.128Z,99.90
2022-10-08T14:49:26.800Z,99.90
2022-10-08T14:51:53.979Z,99.90
2022-10-08T14:59:16.330Z,99.90
2022-10-08T15:01:43.616Z,99.90
2022-10-08T15:04:14.887Z,99.90
2022-10-08T15:06:42.848Z,99.90
2022-10-08T15:09:12.398Z,99.90
2022-10-08T15:11:39.717Z,99.90
2022-10-08T15:14:07.018Z,99.90
2022-10-08T15:16:34.722Z,99.90
2022-10-08T15:19:02.155Z,99.90
2022-10-08T15:23:57.180Z,99.90
2022-10-08T15:26:25.199Z,99.90
2022-10-08T15:28:53.704Z,99.90
2022-10-08T15:31:28.041Z,99.90
2022-10-08T15:36:30.939Z,99.90
2022-10-08T15:39:14.974Z,99.90
2022-10-08T15:41:45.933Z,99.90
2022-10-08T15:44:23.548Z,99.90
2022-10-08T15:47:06.133Z,99.90
2022-10-08T15:49:43.167Z,99.90
2022-10-08T15:52:17.126Z,99.90
2022-10-08T15:54:45.230Z,99.90
2022-10-08T15:57:16.705Z,99.90
2022-10-08T15:59:44.242Z,99.90
2022-10-08T16:02:17.085Z,99.90
2022-10-08T16:04:47.428Z,99.90
2022-10-08T16:07:14.973Z,99.90
2022-10-08T16:09:42.086Z,99.90
2022-10-08T16:14:37.074Z,99.90
2022-10-08T16:17:04.209Z,99.90
2022-10-08T16:21:58.947Z,99.90
2022-10-08T16:26:54.144Z,99.90
2022-10-08T16:29:21.329Z,99.90
2022-10-08T16:31:48.880Z,99.90
2022-10-08T16:34:20.862Z,99.90
2022-10-08T16:36:48.804Z,99.90
2022-10-08T16:39:20.622Z,99.90
2022-10-08T16:41:48.987Z,99.90
2022-10-08T16:44:20.581Z,99.90
2022-10-08T16:46:52.231Z,99.90
2022-10-08T16:49:26.705Z,99.90
2022-10-08T16:52:01.136Z,99.90
2022-10-08T16:54:29.369Z,99.90
2022-10-08T16:56:57.100Z,99.90
2022-10-08T16:59:27.764Z,99.90
2022-10-08T17:01:57.924Z,99.90
2022-10-08T17:04:28.272Z,99.90
2022-10-08T17:06:55.964Z,99.90
2022-10-08T17:09:23.901Z,99.90
2022-10-08T17:11:51.151Z,99.90
2022-10-08T17:14:18.477Z,99.90
2022-10-08T17:16:45.948Z,99.90
2022-10-08T17:21:41.252Z,99.90
2022-10-08T17:26:38.342Z,99.90
2022-10-08T17:29:09.357Z,99.90
2022-10-08T17:31:37.581Z,99.90
2022-10-08T17:34:05.629Z,99.90
2022-10-08T17:36:36.884Z,99.90
2022-10-08T17:39:07.046Z,99.90
2022-10-08T17:41:38.296Z,99.90
2022-10-08T17:44:08.665Z,99.90
2022-10-08T17:46:40.570Z,99.90
2022-10-08T17:49:08.535Z,99.90
2022-10-08T17:51:35.851Z,99.90
2022-10-08T17:54:07.537Z,99.90
2022-10-08T17:56:35.332Z,99.90
2022-10-08T17:59:03.088Z,99.90
2022-10-08T18:01:39.206Z,99.90
2022-10-08T18:04:12.157Z,99.90
2022-10-08T18:06:42.530Z,99.90
2022-10-08T18:09:18.767Z,99.90
2022-10-08T18:11:54.129Z,99.90
2022-10-08T18:14:22.548Z,99.90
2022-10-08T18:16:50.286Z,99.90
2022-10-08T18:19:19.583Z,99.90
2022-10-08T18:21:47.222Z,99.90
2022-10-08T18:24:16.491Z,99.90
2022-10-08T18:26:44.934Z,99.90
2022-10-08T18:29:14.704Z,99.90
2022-10-08T18:31:45.737Z,99.90
2022-10-08T18:34:18.394Z,99.90
2022-10-08T18:36:47.807Z,99.90
2022-10-08T18:39:20.741Z,99.90
2022-10-08T18:41:51.883Z,99.90
2022-10-08T18:44:25.069Z,99.90
2022-10-08T18:46:53.709Z,99.90
2022-10-08T18:49:30.767Z,99.90
2022-10-08T18:51:58.929Z,99.90
2022-10-08T18:54:26.524Z,99.90
2022-10-08T18:56:55.560Z,99.90
2022-10-08T18:59:23.973Z,99.90
2022-10-08T19:01:54.708Z,99.90
2022-10-08T19:04:25.467Z,99.90
2022-10-08T19:06:54.450Z,99.90
2022-10-08T19:09:23.285Z,99.90
2022-10-08T19:11:59.107Z,99.90
2022-10-08T19:14:28.290Z,99.90
2022-10-08T19:16:56.581Z,99.90
2022-10-08T19:19:29.998Z,99.90
2022-10-08T19:22:00.810Z,99.90
2022-10-08T19:24:29.260Z,99.90
2022-10-08T19:26:57.617Z,99.90
2022-10-08T19:29:31.751Z,99.90
2022-10-08T19:31:59.240Z,99.90
2022-10-08T19:34:28.436Z,99.90
2022-10-08T19:39:30.256Z,99.90
2022-10-08T19:41:58.536Z,99.90
2022-10-08T19:44:26.196Z,99.90
2022-10-08T19:46:53.767Z,99.90
2022-10-08T19:49:21.974Z,99.90
2022-10-08T19:51:49.640Z,99.90
2022-10-08T19:54:17.130Z,99.90
2022-10-08T19:56:44.579Z,99.90
2022-10-08T19:59:13.242Z,99.90
2022-10-08T20:01:42.826Z,99.90
2022-10-08T20:04:11.954Z,99.90
2022-10-08T20:06:43.143Z,99.90
2022-10-08T20:09:13.439Z,99.90
2022-10-08T20:11:44.204Z,99.90
2022-10-08T20:14:14.065Z,99.90
2022-10-08T20:16:43.077Z,99.90
2022-10-08T20:19:20.862Z,99.90
2022-10-08T20:21:50.314Z,99.90
2022-10-08T20:24:18.793Z,99.90
2022-10-08T20:26:46.427Z,99.90
2022-10-08T20:29:27.435Z,99.90
2022-10-08T20:31:57.677Z,99.90
2022-10-08T20:34:30.987Z,99.90
2022-10-08T20:37:01.524Z,99.90
2022-10-08T20:39:29.469Z,99.90
2022-10-08T20:41:56.828Z,99.90
2022-10-08T20:44:24.121Z,99.90
2022-10-08T20:46:52.639Z,99.90
2022-10-08T20:49:26.210Z,99.90
2022-10-08T20:51:53.511Z,99.90
2022-10-08T20:54:20.719Z,99.90
2022-10-08T20:56:48.273Z,99.90
2022-10-08T20:59:18.233Z,99.90
2022-10-08T21:01:46.569Z,99.90
2022-10-08T21:04:14.468Z,99.90
2022-10-08T21:06:45.711Z,99.90
2022-10-08T21:09:15.603Z,99.90
2022-10-08T21:11:45.893Z,99.90
2022-10-08T21:14:21.462Z,99.90
2022-10-08T21:16:48.974Z,99.90
2022-10-08T21:19:22.117Z,99.90
2022-10-08T21:21:50.274Z,99.90
2022-10-08T21:24:17.462Z,99.90
2022-10-08T21:26:44.745Z,99.90
2022-10-08T21:29:14.332Z,99.90
2022-10-08T21:31:43.089Z,99.90
2022-10-08T21:34:13.047Z,99.90
2022-10-08T21:36:41.798Z,99.90
2022-10-08T21:39:14.972Z,99.90
2022-10-08T21:41:42.247Z,99.90
2022-10-08T21:44:09.473Z,99.90
2022-10-08T21:46:40.917Z,99.90
2022-10-08T21:49:24.340Z,99.90
2022-10-08T21:54:19.680Z,99.90
2022-10-08T21:56:46.856Z,99.90
2022-10-08T21:59:16.320Z,99.90
2022-10-08T22:01:47.409Z,99.90
2022-10-08T22:04:18.557Z,99.90
2022-10-08T22:06:53.325Z,99.90
2022-10-08T22:09:28.376Z,99.90
2022-10-08T22:11:57.345Z,99.90
2022-10-08T22:14:25.347Z,99.90
2022-10-08T22:16:52.753Z,99.90
2022-10-08T22:19:20.753Z,99.90
2022-10-08T22:21:48.234Z,99.90
2022-10-08T22:24:15.594Z,99.90
2022-10-08T22:26:46.542Z,99.90
2022-10-08T22:29:14.738Z,99.90
2022-10-08T22:31:42.063Z,99.90
2022-10-08T22:36:44.409Z,99.90
2022-10-08T22:41:39.783Z,99.90
2022-10-08T22:44:06.971Z,99.90
2022-10-08T22:46:40.054Z,99.90
2022-10-08T22:49:11.190Z,99.90
2022-10-08T22:51:39.581Z,99.90
2022-10-08T22:54:07.802Z,99.90
2022-10-08T22:56:35.574Z,99.90
2022-10-08T22:59:02.829Z,99.90
2022-10-08T23:01:31.007Z,99.90
2022-10-08T23:04:01.046Z,99.90
2022-10-08T23:06:35.106Z,99.90
2022-10-08T23:09:11.618Z,99.90
2022-10-08T23:11:39.101Z,99.90
2022-10-08T23:14:06.617Z,99.90
2022-10-08T23:16:35.150Z,99.90
2022-10-08T23:19:12.139Z,99.90
2022-10-08T23:21:42.483Z,99.90
2022-10-08T23:24:11.460Z,99.90
2022-10-08T23:26:38.517Z,99.90
2022-10-08T23:29:05.868Z,99.90
2022-10-08T23:31:36.303Z,99.90
2022-10-08T23:34:07.820Z,99.90
2022-10-08T23:36:43.779Z,99.90
2022-10-08T23:39:17.337Z,99.90
2022-10-08T23:41:44.498Z,99.90
2022-10-08T23:44:13.737Z,99.90
2022-10-08T23:46:40.882Z,99.90
2022-10-08T23:49:08.243Z,99.90
2022-10-08T23:51:36.289Z,99.90
2022-10-08T23:54:03.839Z,99.90
2022-10-08T23:56:31.433Z,99.90
2022-10-08T23:58:58.812Z,99.90
